sensor_id;sensor_type;location;lat;lon;timestamp;P1;durP1;ratioP1;P2;durP2;ratioP2
62202;SDS011;48199;49.138;7.414;2023-10-08T00:00:22;20.27;;;7.22;;
62202;SDS011;48199;49.138;7.414;2023-10-08T00:03:08;20.30;;;6.32;;
62202;SDS011;48199;49.138;7.414;2023-10-08T00:05:38;20.00;;;7.43;;
62202;SDS011;48199;49.138;7.414;2023-10-08T00:08:04;20.27;;;6.63;;
62202;SDS011;48199;49.138;7.414;2023-10-08T00:10:38;26.08;;;7.45;;
62202;SDS011;48199;49.138;7.414;2023-10-08T00:13:08;22.35;;;7.93;;
62202;SDS011;48199;49.138;7.414;2023-10-08T00:15:37;20.70;;;7.28;;
62202;SDS011;48199;49.138;7.414;2023-10-08T00:18:03;16.70;;;6.97;;
62202;SDS011;48199;49.138;7.414;2023-10-08T00:20:30;18.50;;;7.18;;
62202;SDS011;48199;49.138;7.414;2023-10-08T00:23:01;25.08;;;8.48;;
62202;SDS011;48199;49.138;7.414;2023-10-08T00:25:27;26.25;;;8.38;;
62202;SDS011;48199;49.138;7.414;2023-10-08T00:27:53;22.30;;;8.27;;
62202;SDS011;48199;49.138;7.414;2023-10-08T00:30:18;22.53;;;8.53;;
62202;SDS011;48199;49.138;7.414;2023-10-08T00:32:43;23.38;;;8.25;;
62202;SDS011;48199;49.138;7.414;2023-10-08T00:35:09;19.95;;;6.43;;
62202;SDS011;48199;49.138;7.414;2023-10-08T00:37:39;24.88;;;7.47;;
62202;SDS011;48199;49.138;7.414;2023-10-08T00:40:05;22.23;;;8.73;;
62202;SDS011;48199;49.138;7.414;2023-10-08T00:42:36;17.48;;;7.15;;
62202;SDS011;48199;49.138;7.414;2023-10-08T00:45:02;18.48;;;7.03;;
62202;SDS011;48199;49.138;7.414;2023-10-08T00:47:29;27.98;;;7.22;;
62202;SDS011;48199;49.138;7.414;2023-10-08T00:49:59;24.98;;;8.07;;
62202;SDS011;48199;49.138;7.414;2023-10-08T00:52:33;21.90;;;7.53;;
62202;SDS011;48199;49.138;7.414;2023-10-08T00:55:22;21.38;;;7.47;;
62202;SDS011;48199;49.138;7.414;2023-10-08T00:57:54;15.80;;;5.95;;
62202;SDS011;48199;49.138;7.414;2023-10-08T01:00:22;22.38;;;6.35;;
62202;SDS011;48199;49.138;7.414;2023-10-08T01:02:48;22.30;;;7.15;;
62202;SDS011;48199;49.138;7.414;2023-10-08T01:05:20;17.85;;;6.60;;
62202;SDS011;48199;49.138;7.414;2023-10-08T01:08:05;18.55;;;6.47;;
62202;SDS011;48199;49.138;7.414;2023-10-08T01:10:31;23.30;;;7.75;;
62202;SDS011;48199;49.138;7.414;2023-10-08T01:12:57;23.58;;;7.18;;
62202;SDS011;48199;49.138;7.414;2023-10-08T01:15:28;28.08;;;7.28;;
62202;SDS011;48199;49.138;7.414;2023-10-08T01:17:54;27.23;;;7.30;;
62202;SDS011;48199;49.138;7.414;2023-10-08T01:20:28;21.20;;;6.53;;
62202;SDS011;48199;49.138;7.414;2023-10-08T01:23:05;22.48;;;7.18;;
62202;SDS011;48199;49.138;7.414;2023-10-08T01:25:34;20.55;;;7.13;;
62202;SDS011;48199;49.138;7.414;2023-10-08T01:27:59;21.53;;;7.57;;
62202;SDS011;48199;49.138;7.414;2023-10-08T01:30:26;17.52;;;6.75;;
62202;SDS011;48199;49.138;7.414;2023-10-08T01:32:51;22.42;;;7.03;;
62202;SDS011;48199;49.138;7.414;2023-10-08T01:35:16;16.40;;;6.07;;
62202;SDS011;48199;49.138;7.414;2023-10-08T01:37:51;27.00;;;6.20;;
62202;SDS011;48199;49.138;7.414;2023-10-08T01:40:17;19.13;;;5.68;;
62202;SDS011;48199;49.138;7.414;2023-10-08T01:42:42;24.95;;;6.93;;
62202;SDS011;48199;49.138;7.414;2023-10-08T01:45:08;29.23;;;6.83;;
62202;SDS011;48199;49.138;7.414;2023-10-08T01:47:35;18.15;;;7.03;;
62202;SDS011;48199;49.138;7.414;2023-10-08T01:50:01;27.00;;;6.35;;
62202;SDS011;48199;49.138;7.414;2023-10-08T01:52:30;23.77;;;6.53;;
62202;SDS011;48199;49.138;7.414;2023-10-08T01:54:56;21.85;;;6.28;;
62202;SDS011;48199;49.138;7.414;2023-10-08T01:57:21;22.00;;;7.07;;
62202;SDS011;48199;49.138;7.414;2023-10-08T01:59:46;19.75;;;5.75;;
62202;SDS011;48199;49.138;7.414;2023-10-08T02:02:11;20.37;;;7.87;;
62202;SDS011;48199;49.138;7.414;2023-10-08T02:04:39;17.90;;;5.57;;
62202;SDS011;48199;49.138;7.414;2023-10-08T02:07:06;18.10;;;6.53;;
62202;SDS011;48199;49.138;7.414;2023-10-08T02:09:37;22.50;;;7.13;;
62202;SDS011;48199;49.138;7.414;2023-10-08T02:12:02;29.87;;;7.47;;
62202;SDS011;48199;49.138;7.414;2023-10-08T02:14:29;17.65;;;6.05;;
62202;SDS011;48199;49.138;7.414;2023-10-08T02:16:56;23.50;;;6.20;;
62202;SDS011;48199;49.138;7.414;2023-10-08T02:19:22;16.40;;;6.18;;
62202;SDS011;48199;49.138;7.414;2023-10-08T02:21:54;23.48;;;6.10;;
62202;SDS011;48199;49.138;7.414;2023-10-08T02:24:20;19.73;;;6.60;;
62202;SDS011;48199;49.138;7.414;2023-10-08T02:26:46;18.73;;;6.40;;
62202;SDS011;48199;49.138;7.414;2023-10-08T02:29:11;25.88;;;7.25;;
62202;SDS011;48199;49.138;7.414;2023-10-08T02:31:37;21.00;;;6.60;;
62202;SDS011;48199;49.138;7.414;2023-10-08T02:34:04;21.98;;;6.15;;
62202;SDS011;48199;49.138;7.414;2023-10-08T02:36:32;17.35;;;5.63;;
62202;SDS011;48199;49.138;7.414;2023-10-08T02:38:57;19.47;;;6.70;;
62202;SDS011;48199;49.138;7.414;2023-10-08T02:41:23;23.07;;;7.30;;
62202;SDS011;48199;49.138;7.414;2023-10-08T02:43:49;24.50;;;6.20;;
62202;SDS011;48199;49.138;7.414;2023-10-08T02:46:14;20.55;;;6.03;;
62202;SDS011;48199;49.138;7.414;2023-10-08T02:48:40;22.58;;;7.18;;
62202;SDS011;48199;49.138;7.414;2023-10-08T02:51:05;17.10;;;6.65;;
62202;SDS011;48199;49.138;7.414;2023-10-08T02:53:40;31.17;;;7.45;;
62202;SDS011;48199;49.138;7.414;2023-10-08T02:56:09;22.63;;;7.10;;
62202;SDS011;48199;49.138;7.414;2023-10-08T02:58:41;21.63;;;6.45;;
62202;SDS011;48199;49.138;7.414;2023-10-08T03:01:08;21.13;;;6.45;;
62202;SDS011;48199;49.138;7.414;2023-10-08T03:03:37;21.05;;;6.95;;
62202;SDS011;48199;49.138;7.414;2023-10-08T03:06:02;20.35;;;5.97;;
62202;SDS011;48199;49.138;7.414;2023-10-08T03:08:28;23.70;;;6.53;;
62202;SDS011;48199;49.138;7.414;2023-10-08T03:10:56;23.35;;;5.97;;
62202;SDS011;48199;49.138;7.414;2023-10-08T03:13:27;18.10;;;6.35;;
62202;SDS011;48199;49.138;7.414;2023-10-08T03:15:52;21.70;;;6.03;;
62202;SDS011;48199;49.138;7.414;2023-10-08T03:18:29;20.58;;;5.88;;
62202;SDS011;48199;49.138;7.414;2023-10-08T03:21:01;22.98;;;6.60;;
62202;SDS011;48199;49.138;7.414;2023-10-08T03:23:30;23.80;;;6.55;;
62202;SDS011;48199;49.138;7.414;2023-10-08T03:25:59;22.05;;;7.25;;
62202;SDS011;48199;49.138;7.414;2023-10-08T03:28:53;24.20;;;6.78;;
62202;SDS011;48199;49.138;7.414;2023-10-08T03:31:22;24.48;;;7.65;;
62202;SDS011;48199;49.138;7.414;2023-10-08T03:33:56;19.02;;;7.00;;
62202;SDS011;48199;49.138;7.414;2023-10-08T03:36:22;27.63;;;8.02;;
62202;SDS011;48199;49.138;7.414;2023-10-08T03:38:59;18.75;;;7.45;;
62202;SDS011;48199;49.138;7.414;2023-10-08T03:41:24;21.60;;;7.13;;
62202;SDS011;48199;49.138;7.414;2023-10-08T03:43:52;21.50;;;7.82;;
62202;SDS011;48199;49.138;7.414;2023-10-08T03:46:21;19.42;;;7.05;;
62202;SDS011;48199;49.138;7.414;2023-10-08T03:48:48;20.05;;;6.97;;
62202;SDS011;48199;49.138;7.414;2023-10-08T03:51:16;19.08;;;7.68;;
62202;SDS011;48199;49.138;7.414;2023-10-08T03:53:45;18.20;;;6.43;;
62202;SDS011;48199;49.138;7.414;2023-10-08T03:56:42;20.00;;;7.05;;
62202;SDS011;48199;49.138;7.414;2023-10-08T03:59:14;17.90;;;6.68;;
62202;SDS011;48199;49.138;7.414;2023-10-08T04:01:45;22.40;;;7.65;;
62202;SDS011;48199;49.138;7.414;2023-10-08T04:04:11;19.05;;;6.32;;
62202;SDS011;48199;49.138;7.414;2023-10-08T04:06:39;25.10;;;6.68;;
62202;SDS011;48199;49.138;7.414;2023-10-08T04:09:12;17.65;;;6.18;;
62202;SDS011;48199;49.138;7.414;2023-10-08T04:11:41;17.67;;;6.80;;
62202;SDS011;48199;49.138;7.414;2023-10-08T04:14:21;21.50;;;7.28;;
62202;SDS011;48199;49.138;7.414;2023-10-08T04:16:46;21.85;;;7.47;;
62202;SDS011;48199;49.138;7.414;2023-10-08T04:19:16;16.40;;;6.85;;
62202;SDS011;48199;49.138;7.414;2023-10-08T04:21:43;19.73;;;6.88;;
62202;SDS011;48199;49.138;7.414;2023-10-08T04:24:08;23.50;;;8.00;;
62202;SDS011;48199;49.138;7.414;2023-10-08T04:26:34;24.48;;;7.55;;
62202;SDS011;48199;49.138;7.414;2023-10-08T04:29:00;20.42;;;6.60;;
62202;SDS011;48199;49.138;7.414;2023-10-08T04:31:30;22.33;;;6.97;;
62202;SDS011;48199;49.138;7.414;2023-10-08T04:36:33;24.02;;;7.25;;
62202;SDS011;48199;49.138;7.414;2023-10-08T04:38:58;25.63;;;7.67;;
62202;SDS011;48199;49.138;7.414;2023-10-08T04:41:30;17.33;;;6.55;;
62202;SDS011;48199;49.138;7.414;2023-10-08T04:43:55;23.80;;;7.60;;
62202;SDS011;48199;49.138;7.414;2023-10-08T04:46:21;21.45;;;7.78;;
62202;SDS011;48199;49.138;7.414;2023-10-08T04:49:04;18.95;;;7.18;;
62202;SDS011;48199;49.138;7.414;2023-10-08T04:51:32;21.05;;;6.28;;
62202;SDS011;48199;49.138;7.414;2023-10-08T04:54:08;17.40;;;7.15;;
62202;SDS011;48199;49.138;7.414;2023-10-08T04:56:34;19.50;;;6.47;;
62202;SDS011;48199;49.138;7.414;2023-10-08T04:58:59;19.73;;;6.83;;
62202;SDS011;48199;49.138;7.414;2023-10-08T05:01:24;22.55;;;6.72;;
62202;SDS011;48199;49.138;7.414;2023-10-08T05:04:13;20.35;;;6.70;;
62202;SDS011;48199;49.138;7.414;2023-10-08T05:06:48;16.65;;;6.53;;
62202;SDS011;48199;49.138;7.414;2023-10-08T05:09:13;19.27;;;6.33;;
62202;SDS011;48199;49.138;7.414;2023-10-08T05:11:45;17.70;;;6.38;;
62202;SDS011;48199;49.138;7.414;2023-10-08T05:14:10;24.25;;;7.30;;
62202;SDS011;48199;49.138;7.414;2023-10-08T05:16:42;21.13;;;7.50;;
62202;SDS011;48199;49.138;7.414;2023-10-08T05:19:25;17.52;;;6.60;;
62202;SDS011;48199;49.138;7.414;2023-10-08T05:22:11;11.45;;;4.85;;
62202;SDS011;48199;49.138;7.414;2023-10-08T05:24:45;14.43;;;5.82;;
62202;SDS011;48199;49.138;7.414;2023-10-08T05:27:34;21.10;;;6.82;;
62202;SDS011;48199;49.138;7.414;2023-10-08T05:30:06;19.33;;;6.93;;
62202;SDS011;48199;49.138;7.414;2023-10-08T05:32:50;19.35;;;6.65;;
62202;SDS011;48199;49.138;7.414;2023-10-08T05:35:37;22.90;;;6.88;;
62202;SDS011;48199;49.138;7.414;2023-10-08T05:38:05;18.23;;;6.47;;
62202;SDS011;48199;49.138;7.414;2023-10-08T05:40:48;19.25;;;7.47;;
62202;SDS011;48199;49.138;7.414;2023-10-08T05:43:39;24.83;;;7.90;;
62202;SDS011;48199;49.138;7.414;2023-10-08T05:46:04;21.60;;;8.13;;
62202;SDS011;48199;49.138;7.414;2023-10-08T05:48:55;22.25;;;7.40;;
62202;SDS011;48199;49.138;7.414;2023-10-08T05:51:27;27.63;;;7.93;;
62202;SDS011;48199;49.138;7.414;2023-10-08T05:54:11;27.17;;;8.45;;
62202;SDS011;48199;49.138;7.414;2023-10-08T05:56:50;21.40;;;7.47;;
62202;SDS011;48199;49.138;7.414;2023-10-08T05:59:34;23.73;;;7.93;;
62202;SDS011;48199;49.138;7.414;2023-10-08T06:02:21;20.27;;;8.05;;
62202;SDS011;48199;49.138;7.414;2023-10-08T06:05:13;17.45;;;6.72;;
62202;SDS011;48199;49.138;7.414;2023-10-08T06:07:39;17.63;;;7.20;;
62202;SDS011;48199;49.138;7.414;2023-10-08T06:13:03;22.02;;;8.73;;
62202;SDS011;48199;49.138;7.414;2023-10-08T06:15:38;26.90;;;9.07;;
62202;SDS011;48199;49.138;7.414;2023-10-08T06:18:27;28.17;;;8.05;;
62202;SDS011;48199;49.138;7.414;2023-10-08T06:23:23;25.73;;;7.63;;
62202;SDS011;48199;49.138;7.414;2023-10-08T06:25:49;20.73;;;6.88;;
62202;SDS011;48199;49.138;7.414;2023-10-08T06:28:21;18.02;;;7.32;;
62202;SDS011;48199;49.138;7.414;2023-10-08T06:30:50;21.92;;;7.57;;
62202;SDS011;48199;49.138;7.414;2023-10-08T06:33:19;21.83;;;5.97;;
62202;SDS011;48199;49.138;7.414;2023-10-08T06:35:44;22.38;;;8.55;;
62202;SDS011;48199;49.138;7.414;2023-10-08T06:38:10;22.43;;;6.80;;
62202;SDS011;48199;49.138;7.414;2023-10-08T06:40:35;27.30;;;7.63;;
62202;SDS011;48199;49.138;7.414;2023-10-08T06:43:01;21.80;;;8.32;;
62202;SDS011;48199;49.138;7.414;2023-10-08T06:45:36;22.90;;;7.53;;
62202;SDS011;48199;49.138;7.414;2023-10-08T06:48:01;27.15;;;8.23;;
62202;SDS011;48199;49.138;7.414;2023-10-08T06:50:31;22.10;;;7.70;;
62202;SDS011;48199;49.138;7.414;2023-10-08T06:52:57;19.55;;;7.53;;
62202;SDS011;48199;49.138;7.414;2023-10-08T06:55:23;20.33;;;8.13;;
62202;SDS011;48199;49.138;7.414;2023-10-08T06:57:50;20.92;;;8.18;;
62202;SDS011;48199;49.138;7.414;2023-10-08T07:00:15;26.23;;;7.47;;
62202;SDS011;48199;49.138;7.414;2023-10-08T07:03:00;24.15;;;8.40;;
62202;SDS011;48199;49.138;7.414;2023-10-08T07:05:26;21.30;;;8.32;;
62202;SDS011;48199;49.138;7.414;2023-10-08T07:07:54;23.90;;;9.02;;
62202;SDS011;48199;49.138;7.414;2023-10-08T07:10:19;19.17;;;8.60;;
62202;SDS011;48199;49.138;7.414;2023-10-08T07:12:45;32.35;;;10.27;;
62202;SDS011;48199;49.138;7.414;2023-10-08T07:15:11;23.27;;;10.23;;
62202;SDS011;48199;49.138;7.414;2023-10-08T07:17:38;22.80;;;8.02;;
62202;SDS011;48199;49.138;7.414;2023-10-08T07:20:08;24.75;;;8.45;;
62202;SDS011;48199;49.138;7.414;2023-10-08T07:22:46;22.10;;;8.52;;
62202;SDS011;48199;49.138;7.414;2023-10-08T07:25:13;18.92;;;7.63;;
62202;SDS011;48199;49.138;7.414;2023-10-08T07:27:40;22.60;;;8.27;;
62202;SDS011;48199;49.138;7.414;2023-10-08T07:30:06;38.17;;;8.07;;
62202;SDS011;48199;49.138;7.414;2023-10-08T07:32:35;16.52;;;6.88;;
62202;SDS011;48199;49.138;7.414;2023-10-08T07:35:03;20.20;;;7.13;;
62202;SDS011;48199;49.138;7.414;2023-10-08T07:37:48;12.23;;;5.20;;
62202;SDS011;48199;49.138;7.414;2023-10-08T07:40:13;20.23;;;6.33;;
62202;SDS011;48199;49.138;7.414;2023-10-08T07:42:39;19.25;;;6.10;;
62202;SDS011;48199;49.138;7.414;2023-10-08T07:45:05;18.40;;;5.90;;
62202;SDS011;48199;49.138;7.414;2023-10-08T07:47:30;15.05;;;6.00;;
62202;SDS011;48199;49.138;7.414;2023-10-08T07:49:56;19.98;;;6.03;;
62202;SDS011;48199;49.138;7.414;2023-10-08T07:52:21;16.58;;;6.15;;
62202;SDS011;48199;49.138;7.414;2023-10-08T07:54:47;43.92;;;14.55;;
62202;SDS011;48199;49.138;7.414;2023-10-08T07:57:12;19.43;;;6.87;;
62202;SDS011;48199;49.138;7.414;2023-10-08T07:59:42;16.55;;;5.85;;
62202;SDS011;48199;49.138;7.414;2023-10-08T08:02:14;17.58;;;5.72;;
62202;SDS011;48199;49.138;7.414;2023-10-08T08:04:43;15.48;;;6.13;;
62202;SDS011;48199;49.138;7.414;2023-10-08T08:07:10;14.07;;;5.32;;
62202;SDS011;48199;49.138;7.414;2023-10-08T08:09:49;18.02;;;5.72;;
62202;SDS011;48199;49.138;7.414;2023-10-08T08:12:23;20.60;;;9.13;;
62202;SDS011;48199;49.138;7.414;2023-10-08T08:14:50;13.85;;;5.68;;
62202;SDS011;48199;49.138;7.414;2023-10-08T08:17:16;14.23;;;5.72;;
62202;SDS011;48199;49.138;7.414;2023-10-08T08:19:42;13.70;;;5.45;;
62202;SDS011;48199;49.138;7.414;2023-10-08T08:22:12;16.48;;;5.38;;
62202;SDS011;48199;49.138;7.414;2023-10-08T08:24:44;24.25;;;5.53;;
62202;SDS011;48199;49.138;7.414;2023-10-08T08:27:10;13.95;;;5.75;;
62202;SDS011;48199;49.138;7.414;2023-10-08T08:29:56;15.32;;;5.22;;
62202;SDS011;48199;49.138;7.414;2023-10-08T08:32:26;13.18;;;5.03;;
62202;SDS011;48199;49.138;7.414;2023-10-08T08:34:53;14.20;;;4.90;;
62202;SDS011;48199;49.138;7.414;2023-10-08T08:37:19;17.10;;;5.38;;
62202;SDS011;48199;49.138;7.414;2023-10-08T08:39:47;15.23;;;5.10;;
62202;SDS011;48199;49.138;7.414;2023-10-08T08:42:12;17.43;;;5.90;;
62202;SDS011;48199;49.138;7.414;2023-10-08T08:44:40;14.27;;;5.72;;
62202;SDS011;48199;49.138;7.414;2023-10-08T08:47:12;13.25;;;5.50;;
62202;SDS011;48199;49.138;7.414;2023-10-08T08:49:43;16.10;;;5.85;;
62202;SDS011;48199;49.138;7.414;2023-10-08T08:52:08;17.48;;;5.20;;
62202;SDS011;48199;49.138;7.414;2023-10-08T08:54:34;13.30;;;5.13;;
62202;SDS011;48199;49.138;7.414;2023-10-08T08:57:02;15.35;;;6.20;;
62202;SDS011;48199;49.138;7.414;2023-10-08T08:59:29;23.52;;;6.15;;
62202;SDS011;48199;49.138;7.414;2023-10-08T09:01:56;12.30;;;5.28;;
62202;SDS011;48199;49.138;7.414;2023-10-08T09:04:28;15.82;;;5.47;;
62202;SDS011;48199;49.138;7.414;2023-10-08T09:06:58;15.30;;;5.82;;
62202;SDS011;48199;49.138;7.414;2023-10-08T09:09:30;14.55;;;5.00;;
62202;SDS011;48199;49.138;7.414;2023-10-08T09:11:56;15.30;;;6.13;;
62202;SDS011;48199;49.138;7.414;2023-10-08T09:14:22;14.32;;;5.78;;
62202;SDS011;48199;49.138;7.414;2023-10-08T09:16:54;19.13;;;6.07;;
62202;SDS011;48199;49.138;7.414;2023-10-08T09:19:19;13.73;;;5.35;;
62202;SDS011;48199;49.138;7.414;2023-10-08T09:24:24;14.85;;;6.50;;
62202;SDS011;48199;49.138;7.414;2023-10-08T09:26:51;16.70;;;5.65;;
62202;SDS011;48199;49.138;7.414;2023-10-08T09:29:16;13.93;;;6.18;;
62202;SDS011;48199;49.138;7.414;2023-10-08T09:31:42;10.43;;;5.30;;
62202;SDS011;48199;49.138;7.414;2023-10-08T09:34:13;15.27;;;5.65;;
62202;SDS011;48199;49.138;7.414;2023-10-08T09:36:41;16.27;;;5.90;;
62202;SDS011;48199;49.138;7.414;2023-10-08T09:39:07;13.73;;;5.80;;
62202;SDS011;48199;49.138;7.414;2023-10-08T09:41:33;17.65;;;5.30;;
62202;SDS011;48199;49.138;7.414;2023-10-08T09:43:58;13.98;;;5.53;;
62202;SDS011;48199;49.138;7.414;2023-10-08T09:46:42;14.05;;;6.20;;
62202;SDS011;48199;49.138;7.414;2023-10-08T09:49:07;12.32;;;4.95;;
62202;SDS011;48199;49.138;7.414;2023-10-08T09:51:37;13.02;;;5.75;;
62202;SDS011;48199;49.138;7.414;2023-10-08T09:56:49;12.18;;;5.18;;
62202;SDS011;48199;49.138;7.414;2023-10-08T09:59:15;13.98;;;5.32;;
62202;SDS011;48199;49.138;7.414;2023-10-08T10:01:41;12.70;;;5.35;;
62202;SDS011;48199;49.138;7.414;2023-10-08T10:04:10;14.00;;;5.07;;
62202;SDS011;48199;49.138;7.414;2023-10-08T10:06:36;13.10;;;5.35;;
62202;SDS011;48199;49.138;7.414;2023-10-08T10:09:02;14.98;;;5.68;;
62202;SDS011;48199;49.138;7.414;2023-10-08T10:11:31;13.73;;;6.22;;
62202;SDS011;48199;49.138;7.414;2023-10-08T10:13:59;15.85;;;5.18;;
62202;SDS011;48199;49.138;7.414;2023-10-08T10:16:25;15.93;;;6.03;;
62202;SDS011;48199;49.138;7.414;2023-10-08T10:18:51;20.55;;;5.22;;
62202;SDS011;48199;49.138;7.414;2023-10-08T10:21:26;10.73;;;5.15;;
62202;SDS011;48199;49.138;7.414;2023-10-08T10:23:52;18.10;;;6.25;;
62202;SDS011;48199;49.138;7.414;2023-10-08T10:26:28;13.27;;;5.35;;
62202;SDS011;48199;49.138;7.414;2023-10-08T10:29:37;10.77;;;4.97;;
62202;SDS011;48199;49.138;7.414;2023-10-08T10:31:47;12.27;;;5.22;;
62202;SDS011;48199;49.138;7.414;2023-10-08T10:34:14;15.10;;;5.30;;
62202;SDS011;48199;49.138;7.414;2023-10-08T10:36:44;18.85;;;5.38;;
62202;SDS011;48199;49.138;7.414;2023-10-08T10:39:13;13.23;;;4.95;;
62202;SDS011;48199;49.138;7.414;2023-10-08T10:41:42;15.55;;;5.20;;
62202;SDS011;48199;49.138;7.414;2023-10-08T10:44:08;11.32;;;4.70;;
62202;SDS011;48199;49.138;7.414;2023-10-08T10:46:33;13.25;;;4.93;;
62202;SDS011;48199;49.138;7.414;2023-10-08T10:49:06;14.75;;;5.00;;
62202;SDS011;48199;49.138;7.414;2023-10-08T10:51:43;13.45;;;4.68;;
62202;SDS011;48199;49.138;7.414;2023-10-08T10:54:08;13.30;;;5.32;;
62202;SDS011;48199;49.138;7.414;2023-10-08T10:56:35;16.23;;;5.53;;
62202;SDS011;48199;49.138;7.414;2023-10-08T10:59:08;17.23;;;5.45;;
62202;SDS011;48199;49.138;7.414;2023-10-08T11:01:52;14.15;;;4.70;;
62202;SDS011;48199;49.138;7.414;2023-10-08T11:04:17;14.57;;;5.15;;
62202;SDS011;48199;49.138;7.414;2023-10-08T11:06:45;10.00;;;4.80;;
62202;SDS011;48199;49.138;7.414;2023-10-08T11:09:11;13.93;;;5.65;;
62202;SDS011;48199;49.138;7.414;2023-10-08T11:11:40;11.13;;;5.57;;
62202;SDS011;48199;49.138;7.414;2023-10-08T11:14:10;12.63;;;5.03;;
62202;SDS011;48199;49.138;7.414;2023-10-08T11:16:41;16.33;;;5.07;;
62202;SDS011;48199;49.138;7.414;2023-10-08T11:19:08;11.70;;;5.13;;
62202;SDS011;48199;49.138;7.414;2023-10-08T11:21:47;14.63;;;5.40;;
62202;SDS011;48199;49.138;7.414;2023-10-08T11:24:12;12.25;;;5.15;;
62202;SDS011;48199;49.138;7.414;2023-10-08T11:26:50;15.60;;;4.55;;
62202;SDS011;48199;49.138;7.414;2023-10-08T11:29:31;10.93;;;4.77;;
62202;SDS011;48199;49.138;7.414;2023-10-08T11:31:56;10.63;;;4.63;;
62202;SDS011;48199;49.138;7.414;2023-10-08T11:34:21;14.25;;;4.93;;
62202;SDS011;48199;49.138;7.414;2023-10-08T11:36:52;11.95;;;4.60;;
62202;SDS011;48199;49.138;7.414;2023-10-08T11:39:20;11.10;;;4.60;;
62202;SDS011;48199;49.138;7.414;2023-10-08T11:41:55;14.68;;;4.50;;
62202;SDS011;48199;49.138;7.414;2023-10-08T11:44:20;15.18;;;4.82;;
62202;SDS011;48199;49.138;7.414;2023-10-08T11:46:48;14.02;;;5.03;;
62202;SDS011;48199;49.138;7.414;2023-10-08T11:49:16;22.17;;;5.03;;
62202;SDS011;48199;49.138;7.414;2023-10-08T11:51:50;11.90;;;4.30;;
62202;SDS011;48199;49.138;7.414;2023-10-08T11:54:17;16.00;;;5.38;;
62202;SDS011;48199;49.138;7.414;2023-10-08T11:56:42;14.35;;;5.13;;
62202;SDS011;48199;49.138;7.414;2023-10-08T11:59:07;21.27;;;5.10;;
62202;SDS011;48199;49.138;7.414;2023-10-08T12:01:37;8.88;;;4.43;;
62202;SDS011;48199;49.138;7.414;2023-10-08T12:04:05;12.45;;;4.70;;
62202;SDS011;48199;49.138;7.414;2023-10-08T12:06:37;14.82;;;4.78;;
62202;SDS011;48199;49.138;7.414;2023-10-08T12:09:03;11.40;;;3.97;;
62202;SDS011;48199;49.138;7.414;2023-10-08T12:11:36;13.18;;;4.55;;
62202;SDS011;48199;49.138;7.414;2023-10-08T12:14:03;13.13;;;4.82;;
62202;SDS011;48199;49.138;7.414;2023-10-08T12:16:28;18.58;;;4.95;;
62202;SDS011;48199;49.138;7.414;2023-10-08T12:19:00;11.20;;;4.82;;
62202;SDS011;48199;49.138;7.414;2023-10-08T12:21:26;15.85;;;5.57;;
62202;SDS011;48199;49.138;7.414;2023-10-08T12:23:54;12.60;;;4.78;;
62202;SDS011;48199;49.138;7.414;2023-10-08T12:26:20;14.40;;;4.68;;
62202;SDS011;48199;49.138;7.414;2023-10-08T12:28:45;11.40;;;4.43;;
62202;SDS011;48199;49.138;7.414;2023-10-08T12:31:12;13.55;;;4.93;;
62202;SDS011;48199;49.138;7.414;2023-10-08T12:33:37;16.20;;;4.95;;
62202;SDS011;48199;49.138;7.414;2023-10-08T12:36:02;15.97;;;4.70;;
62202;SDS011;48199;49.138;7.414;2023-10-08T12:38:35;12.88;;;4.80;;
62202;SDS011;48199;49.138;7.414;2023-10-08T12:41:01;15.57;;;5.25;;
62202;SDS011;48199;49.138;7.414;2023-10-08T12:46:00;12.55;;;4.82;;
62202;SDS011;48199;49.138;7.414;2023-10-08T12:48:27;11.98;;;4.50;;
62202;SDS011;48199;49.138;7.414;2023-10-08T12:50:55;15.50;;;4.65;;
62202;SDS011;48199;49.138;7.414;2023-10-08T12:53:26;16.85;;;4.82;;
62202;SDS011;48199;49.138;7.414;2023-10-08T12:56:08;14.68;;;4.45;;
62202;SDS011;48199;49.138;7.414;2023-10-08T12:58:40;14.52;;;5.50;;
62202;SDS011;48199;49.138;7.414;2023-10-08T13:01:13;13.18;;;5.20;;
62202;SDS011;48199;49.138;7.414;2023-10-08T13:03:42;18.48;;;4.97;;
62202;SDS011;48199;49.138;7.414;2023-10-08T13:06:10;18.40;;;4.50;;
62202;SDS011;48199;49.138;7.414;2023-10-08T13:08:40;14.90;;;4.82;;
62202;SDS011;48199;49.138;7.414;2023-10-08T13:11:05;17.75;;;4.70;;
62202;SDS011;48199;49.138;7.414;2023-10-08T13:13:30;21.63;;;5.13;;
62202;SDS011;48199;49.138;7.414;2023-10-08T13:15:57;19.25;;;5.07;;
62202;SDS011;48199;49.138;7.414;2023-10-08T13:18:25;15.10;;;4.35;;
62202;SDS011;48199;49.138;7.414;2023-10-08T13:20:54;22.05;;;5.18;;
62202;SDS011;48199;49.138;7.414;2023-10-08T13:23:20;17.08;;;4.88;;
62202;SDS011;48199;49.138;7.414;2023-10-08T13:25:48;24.73;;;5.13;;
62202;SDS011;48199;49.138;7.414;2023-10-08T13:28:19;13.57;;;4.88;;
62202;SDS011;48199;49.138;7.414;2023-10-08T13:30:46;14.30;;;4.55;;
62202;SDS011;48199;49.138;7.414;2023-10-08T13:33:11;14.90;;;4.90;;
62202;SDS011;48199;49.138;7.414;2023-10-08T13:35:36;16.73;;;4.87;;
62202;SDS011;48199;49.138;7.414;2023-10-08T13:38:01;13.87;;;4.27;;
62202;SDS011;48199;49.138;7.414;2023-10-08T13:40:34;15.63;;;4.57;;
62202;SDS011;48199;49.138;7.414;2023-10-08T13:43:04;17.85;;;4.63;;
62202;SDS011;48199;49.138;7.414;2023-10-08T13:45:30;18.15;;;4.78;;
62202;SDS011;48199;49.138;7.414;2023-10-08T13:47:57;20.95;;;4.85;;
62202;SDS011;48199;49.138;7.414;2023-10-08T13:50:24;18.25;;;5.13;;
62202;SDS011;48199;49.138;7.414;2023-10-08T13:52:50;25.35;;;4.85;;
62202;SDS011;48199;49.138;7.414;2023-10-08T13:55:15;23.77;;;5.10;;
62202;SDS011;48199;49.138;7.414;2023-10-08T13:57:44;22.73;;;5.10;;
62202;SDS011;48199;49.138;7.414;2023-10-08T14:00:11;17.48;;;5.18;;
62202;SDS011;48199;49.138;7.414;2023-10-08T14:02:40;19.40;;;4.05;;
62202;SDS011;48199;49.138;7.414;2023-10-08T14:05:06;19.38;;;4.97;;
62202;SDS011;48199;49.138;7.414;2023-10-08T14:07:33;22.05;;;4.72;;
62202;SDS011;48199;49.138;7.414;2023-10-08T14:10:00;22.27;;;5.43;;
62202;SDS011;48199;49.138;7.414;2023-10-08T14:12:30;24.10;;;4.82;;
62202;SDS011;48199;49.138;7.414;2023-10-08T14:14:59;21.10;;;4.72;;
62202;SDS011;48199;49.138;7.414;2023-10-08T14:17:24;19.40;;;5.40;;
62202;SDS011;48199;49.138;7.414;2023-10-08T14:20:07;22.85;;;5.10;;
62202;SDS011;48199;49.138;7.414;2023-10-08T14:22:37;15.75;;;5.30;;
62202;SDS011;48199;49.138;7.414;2023-10-08T14:25:03;20.25;;;4.72;;
62202;SDS011;48199;49.138;7.414;2023-10-08T14:27:36;15.35;;;4.55;;
62202;SDS011;48199;49.138;7.414;2023-10-08T14:30:08;23.70;;;4.75;;
62202;SDS011;48199;49.138;7.414;2023-10-08T14:32:40;15.13;;;4.00;;
62202;SDS011;48199;49.138;7.414;2023-10-08T14:35:10;24.05;;;4.60;;
62202;SDS011;48199;49.138;7.414;2023-10-08T14:37:53;19.23;;;5.00;;
62202;SDS011;48199;49.138;7.414;2023-10-08T14:40:37;18.75;;;5.30;;
62202;SDS011;48199;49.138;7.414;2023-10-08T14:43:21;24.50;;;4.57;;
62202;SDS011;48199;49.138;7.414;2023-10-08T14:45:48;22.88;;;4.93;;
62202;SDS011;48199;49.138;7.414;2023-10-08T14:48:14;17.85;;;4.72;;
62202;SDS011;48199;49.138;7.414;2023-10-08T14:50:39;16.47;;;4.37;;
62202;SDS011;48199;49.138;7.414;2023-10-08T14:53:05;15.80;;;5.25;;
62202;SDS011;48199;49.138;7.414;2023-10-08T14:55:31;15.75;;;4.85;;
62202;SDS011;48199;49.138;7.414;2023-10-08T14:57:59;16.65;;;4.47;;
62202;SDS011;48199;49.138;7.414;2023-10-08T15:00:31;16.45;;;5.15;;
62202;SDS011;48199;49.138;7.414;2023-10-08T15:02:56;14.45;;;4.38;;